sensor_id;sensor_type;location;lat;lon;timestamp;P1;durP1;ratioP1;P2;durP2;ratioP2
18905;SDS011;9585;51.018;4.282;2023-02-13T00:01:51;32.67;;;19.75;;
18905;SDS011;9585;51.018;4.282;2023-02-13T00:04:19;33.30;;;19.70;;
18905;SDS011;9585;51.018;4.282;2023-02-13T00:06:46;30.50;;;18.73;;
18905;SDS011;9585;51.018;4.282;2023-02-13T00:09:13;28.92;;;17.85;;
18905;SDS011;9585;51.018;4.282;2023-02-13T00:11:42;27.02;;;17.55;;
18905;SDS011;9585;51.018;4.282;2023-02-13T00:14:10;28.35;;;17.88;;
18905;SDS011;9585;51.018;4.282;2023-02-13T00:16:37;36.00;;;20.83;;
18905;SDS011;9585;51.018;4.282;2023-02-13T00:19:04;43.97;;;23.95;;
18905;SDS011;9585;51.018;4.282;2023-02-13T00:21:32;48.00;;;26.20;;
18905;SDS011;9585;51.018;4.282;2023-02-13T00:24:00;48.85;;;25.75;;
18905;SDS011;9585;51.018;4.282;2023-02-13T00:26:27;46.50;;;24.95;;
18905;SDS011;9585;51.018;4.282;2023-02-13T00:28:56;48.63;;;27.23;;
18905;SDS011;9585;51.018;4.282;2023-02-13T00:31:23;46.22;;;25.15;;
18905;SDS011;9585;51.018;4.282;2023-02-13T00:33:51;38.80;;;21.88;;
18905;SDS011;9585;51.018;4.282;2023-02-13T00:36:19;35.00;;;19.85;;
18905;SDS011;9585;51.018;4.282;2023-02-13T00:38:48;31.15;;;18.52;;
18905;SDS011;9585;51.018;4.282;2023-02-13T00:41:15;28.35;;;17.92;;
18905;SDS011;9585;51.018;4.282;2023-02-13T00:43:43;25.05;;;17.02;;
18905;SDS011;9585;51.018;4.282;2023-02-13T00:46:13;27.42;;;17.25;;
18905;SDS011;9585;51.018;4.282;2023-02-13T00:48:41;28.45;;;17.55;;
18905;SDS011;9585;51.018;4.282;2023-02-13T00:51:09;32.85;;;19.27;;
18905;SDS011;9585;51.018;4.282;2023-02-13T00:53:37;29.17;;;17.33;;
18905;SDS011;9585;51.018;4.282;2023-02-13T00:56:05;29.80;;;17.45;;
18905;SDS011;9585;51.018;4.282;2023-02-13T00:58:33;33.17;;;18.95;;
18905;SDS011;9585;51.018;4.282;2023-02-13T01:01:00;34.38;;;18.95;;
18905;SDS011;9585;51.018;4.282;2023-02-13T01:03:29;45.05;;;25.13;;
18905;SDS011;9585;51.018;4.282;2023-02-13T01:05:56;52.85;;;26.77;;
18905;SDS011;9585;51.018;4.282;2023-02-13T01:08:24;54.00;;;27.02;;
18905;SDS011;9585;51.018;4.282;2023-02-13T01:10:53;46.20;;;24.75;;
18905;SDS011;9585;51.018;4.282;2023-02-13T01:13:20;47.00;;;24.48;;
18905;SDS011;9585;51.018;4.282;2023-02-13T01:15:48;42.58;;;23.27;;
18905;SDS011;9585;51.018;4.282;2023-02-13T01:18:16;35.78;;;20.88;;
18905;SDS011;9585;51.018;4.282;2023-02-13T01:20:54;34.63;;;19.15;;
18905;SDS011;9585;51.018;4.282;2023-02-13T01:23:23;37.97;;;21.55;;
18905;SDS011;9585;51.018;4.282;2023-02-13T01:25:50;36.67;;;20.30;;
18905;SDS011;9585;51.018;4.282;2023-02-13T01:28:17;32.58;;;19.23;;
18905;SDS011;9585;51.018;4.282;2023-02-13T01:30:45;30.17;;;18.60;;
18905;SDS011;9585;51.018;4.282;2023-02-13T01:33:18;33.85;;;19.02;;
18905;SDS011;9585;51.018;4.282;2023-02-13T01:35:47;32.42;;;18.50;;
18905;SDS011;9585;51.018;4.282;2023-02-13T01:38:14;33.80;;;19.50;;
18905;SDS011;9585;51.018;4.282;2023-02-13T01:40:45;32.13;;;18.67;;
18905;SDS011;9585;51.018;4.282;2023-02-13T01:43:13;32.53;;;18.58;;
18905;SDS011;9585;51.018;4.282;2023-02-13T01:45:40;29.13;;;18.25;;
18905;SDS011;9585;51.018;4.282;2023-02-13T01:48:10;28.98;;;16.63;;
18905;SDS011;9585;51.018;4.282;2023-02-13T01:50:41;28.27;;;16.90;;
18905;SDS011;9585;51.018;4.282;2023-02-13T01:53:15;30.38;;;17.02;;
18905;SDS011;9585;51.018;4.282;2023-02-13T01:55:46;30.10;;;17.57;;
18905;SDS011;9585;51.018;4.282;2023-02-13T01:58:17;27.30;;;16.65;;
18905;SDS011;9585;51.018;4.282;2023-02-13T02:00:48;30.85;;;16.90;;
18905;SDS011;9585;51.018;4.282;2023-02-13T02:03:16;34.20;;;18.75;;
18905;SDS011;9585;51.018;4.282;2023-02-13T02:05:48;34.50;;;18.90;;
18905;SDS011;9585;51.018;4.282;2023-02-13T02:08:18;29.65;;;17.92;;
18905;SDS011;9585;51.018;4.282;2023-02-13T02:10:46;31.70;;;17.70;;
18905;SDS011;9585;51.018;4.282;2023-02-13T02:13:14;34.50;;;18.83;;
18905;SDS011;9585;51.018;4.282;2023-02-13T02:15:43;31.47;;;18.23;;
18905;SDS011;9585;51.018;4.282;2023-02-13T02:18:13;33.30;;;18.83;;
18905;SDS011;9585;51.018;4.282;2023-02-13T02:20:50;31.37;;;18.20;;
18905;SDS011;9585;51.018;4.282;2023-02-13T02:26:53;30.37;;;17.23;;
18905;SDS011;9585;51.018;4.282;2023-02-13T02:32:49;26.67;;;16.13;;
18905;SDS011;9585;51.018;4.282;2023-02-13T02:35:27;29.80;;;17.53;;
18905;SDS011;9585;51.018;4.282;2023-02-13T02:40:55;26.70;;;15.13;;
18905;SDS011;9585;51.018;4.282;2023-02-13T02:43:37;25.43;;;15.00;;
18905;SDS011;9585;51.018;4.282;2023-02-13T02:46:16;29.33;;;15.73;;
18905;SDS011;9585;51.018;4.282;2023-02-13T02:48:53;26.63;;;15.40;;
18905;SDS011;9585;51.018;4.282;2023-02-13T02:51:46;24.63;;;15.48;;
18905;SDS011;9585;51.018;4.282;2023-02-13T02:54:19;27.70;;;15.50;;
18905;SDS011;9585;51.018;4.282;2023-02-13T02:57:09;26.10;;;15.00;;
18905;SDS011;9585;51.018;4.282;2023-02-13T02:59:40;28.60;;;16.13;;
18905;SDS011;9585;51.018;4.282;2023-02-13T03:02:26;31.30;;;16.63;;
18905;SDS011;9585;51.018;4.282;2023-02-13T03:05:16;32.10;;;17.23;;
18905;SDS011;9585;51.018;4.282;2023-02-13T03:08:04;32.20;;;17.13;;
18905;SDS011;9585;51.018;4.282;2023-02-13T03:10:33;30.20;;;16.87;;
18905;SDS011;9585;51.018;4.282;2023-02-13T03:13:28;34.40;;;18.13;;
18905;SDS011;9585;51.018;4.282;2023-02-13T03:16:03;35.93;;;19.53;;
18905;SDS011;9585;51.018;4.282;2023-02-13T03:18:50;44.67;;;22.67;;
18905;SDS011;9585;51.018;4.282;2023-02-13T03:21:41;41.57;;;22.00;;
18905;SDS011;9585;51.018;4.282;2023-02-13T03:24:32;38.50;;;20.63;;
18905;SDS011;9585;51.018;4.282;2023-02-13T03:27:07;36.87;;;20.10;;
18905;SDS011;9585;51.018;4.282;2023-02-13T03:29:40;33.10;;;17.70;;
18905;SDS011;9585;51.018;4.282;2023-02-13T03:32:35;34.07;;;17.87;;
18905;SDS011;9585;51.018;4.282;2023-02-13T03:35:22;38.03;;;19.73;;
18905;SDS011;9585;51.018;4.282;2023-02-13T03:38:14;34.77;;;18.77;;
18905;SDS011;9585;51.018;4.282;2023-02-13T03:40:47;30.23;;;17.70;;
18905;SDS011;9585;51.018;4.282;2023-02-13T03:43:35;32.17;;;18.50;;
18905;SDS011;9585;51.018;4.282;2023-02-13T03:46:07;32.33;;;18.17;;
18905;SDS011;9585;51.018;4.282;2023-02-13T03:48:36;32.03;;;17.97;;
18905;SDS011;9585;51.018;4.282;2023-02-13T03:51:26;46.27;;;22.13;;
18905;SDS011;9585;51.018;4.282;2023-02-13T03:53:58;38.77;;;20.30;;
18905;SDS011;9585;51.018;4.282;2023-02-13T03:56:27;55.50;;;24.27;;
18905;SDS011;9585;51.018;4.282;2023-02-13T03:59:17;46.40;;;22.47;;
18905;SDS011;9585;51.018;4.282;2023-02-13T04:01:49;43.30;;;22.60;;
18905;SDS011;9585;51.018;4.282;2023-02-13T04:04:24;44.70;;;22.80;;
18905;SDS011;9585;51.018;4.282;2023-02-13T04:06:58;42.33;;;22.07;;
18905;SDS011;9585;51.018;4.282;2023-02-13T04:09:30;39.57;;;21.43;;
18905;SDS011;9585;51.018;4.282;2023-02-13T04:12:02;36.83;;;20.37;;
18905;SDS011;9585;51.018;4.282;2023-02-13T04:14:35;33.17;;;18.30;;
18905;SDS011;9585;51.018;4.282;2023-02-13T04:17:07;34.83;;;18.23;;
18905;SDS011;9585;51.018;4.282;2023-02-13T04:19:38;31.07;;;19.70;;
18905;SDS011;9585;51.018;4.282;2023-02-13T04:22:05;33.13;;;19.70;;
18905;SDS011;9585;51.018;4.282;2023-02-13T04:24:34;37.63;;;19.93;;
18905;SDS011;9585;51.018;4.282;2023-02-13T04:27:01;28.97;;;17.87;;
18905;SDS011;9585;51.018;4.282;2023-02-13T04:29:29;29.63;;;17.73;;
18905;SDS011;9585;51.018;4.282;2023-02-13T04:31:56;25.80;;;17.07;;
18905;SDS011;9585;51.018;4.282;2023-02-13T04:34:23;29.17;;;19.63;;
18905;SDS011;9585;51.018;4.282;2023-02-13T04:36:50;41.57;;;19.97;;
18905;SDS011;9585;51.018;4.282;2023-02-13T04:39:17;44.10;;;20.10;;
18905;SDS011;9585;51.018;4.282;2023-02-13T04:41:46;33.90;;;18.90;;
18905;SDS011;9585;51.018;4.282;2023-02-13T04:44:13;27.37;;;18.83;;
18905;SDS011;9585;51.018;4.282;2023-02-13T04:46:41;25.37;;;17.70;;
18905;SDS011;9585;51.018;4.282;2023-02-13T04:49:08;26.43;;;17.33;;
18905;SDS011;9585;51.018;4.282;2023-02-13T04:51:36;24.37;;;17.67;;
18905;SDS011;9585;51.018;4.282;2023-02-13T04:54:03;24.23;;;17.27;;
18905;SDS011;9585;51.018;4.282;2023-02-13T04:56:30;24.57;;;16.77;;
18905;SDS011;9585;51.018;4.282;2023-02-13T04:58:59;25.93;;;17.23;;
18905;SDS011;9585;51.018;4.282;2023-02-13T05:01:26;23.27;;;16.83;;
18905;SDS011;9585;51.018;4.282;2023-02-13T05:03:54;24.17;;;16.70;;
18905;SDS011;9585;51.018;4.282;2023-02-13T05:06:21;23.90;;;17.33;;
18905;SDS011;9585;51.018;4.282;2023-02-13T05:08:48;24.90;;;17.23;;
18905;SDS011;9585;51.018;4.282;2023-02-13T05:11:16;23.73;;;17.43;;
18905;SDS011;9585;51.018;4.282;2023-02-13T05:13:43;23.70;;;17.30;;
18905;SDS011;9585;51.018;4.282;2023-02-13T05:16:12;29.23;;;16.20;;
18905;SDS011;9585;51.018;4.282;2023-02-13T05:18:39;24.23;;;16.03;;
18905;SDS011;9585;51.018;4.282;2023-02-13T05:21:06;22.37;;;16.40;;
18905;SDS011;9585;51.018;4.282;2023-02-13T05:23:51;20.37;;;15.10;;
18905;SDS011;9585;51.018;4.282;2023-02-13T05:26:18;23.07;;;16.83;;
18905;SDS011;9585;51.018;4.282;2023-02-13T05:28:45;26.87;;;17.00;;
18905;SDS011;9585;51.018;4.282;2023-02-13T05:31:31;22.07;;;15.90;;
18905;SDS011;9585;51.018;4.282;2023-02-13T05:33:58;20.87;;;15.33;;
18905;SDS011;9585;51.018;4.282;2023-02-13T05:36:25;20.60;;;14.83;;
18905;SDS011;9585;51.018;4.282;2023-02-13T05:38:53;21.30;;;15.40;;
18905;SDS011;9585;51.018;4.282;2023-02-13T05:41:20;21.03;;;15.17;;
18905;SDS011;9585;51.018;4.282;2023-02-13T05:43:47;19.43;;;14.47;;
18905;SDS011;9585;51.018;4.282;2023-02-13T05:46:14;21.20;;;15.87;;
18905;SDS011;9585;51.018;4.282;2023-02-13T05:48:43;22.40;;;15.87;;
18905;SDS011;9585;51.018;4.282;2023-02-13T05:51:10;23.33;;;16.83;;
18905;SDS011;9585;51.018;4.282;2023-02-13T05:53:38;25.80;;;17.17;;
18905;SDS011;9585;51.018;4.282;2023-02-13T05:56:05;24.57;;;17.07;;
18905;SDS011;9585;51.018;4.282;2023-02-13T05:58:35;23.47;;;16.80;;
18905;SDS011;9585;51.018;4.282;2023-02-13T06:01:03;21.43;;;15.73;;
18905;SDS011;9585;51.018;4.282;2023-02-13T06:03:31;22.23;;;15.83;;
18905;SDS011;9585;51.018;4.282;2023-02-13T06:05:59;20.77;;;15.63;;
18905;SDS011;9585;51.018;4.282;2023-02-13T06:08:27;22.23;;;16.00;;
18905;SDS011;9585;51.018;4.282;2023-02-13T06:10:54;27.53;;;15.83;;
18905;SDS011;9585;51.018;4.282;2023-02-13T06:13:21;23.17;;;15.87;;
18905;SDS011;9585;51.018;4.282;2023-02-13T06:15:49;21.33;;;15.40;;
18905;SDS011;9585;51.018;4.282;2023-02-13T06:18:16;22.23;;;15.77;;
18905;SDS011;9585;51.018;4.282;2023-02-13T06:20:43;21.13;;;15.30;;
18905;SDS011;9585;51.018;4.282;2023-02-13T06:23:12;22.03;;;16.30;;
18905;SDS011;9585;51.018;4.282;2023-02-13T06:25:39;25.33;;;15.37;;
18905;SDS011;9585;51.018;4.282;2023-02-13T06:28:07;19.10;;;14.87;;
18905;SDS011;9585;51.018;4.282;2023-02-13T06:30:34;19.70;;;14.53;;
18905;SDS011;9585;51.018;4.282;2023-02-13T06:33:01;20.60;;;14.13;;
18905;SDS011;9585;51.018;4.282;2023-02-13T06:35:29;20.27;;;15.00;;
18905;SDS011;9585;51.018;4.282;2023-02-13T06:37:56;19.47;;;14.97;;
18905;SDS011;9585;51.018;4.282;2023-02-13T06:40:24;19.97;;;15.13;;
18905;SDS011;9585;51.018;4.282;2023-02-13T06:42:52;19.73;;;14.33;;
18905;SDS011;9585;51.018;4.282;2023-02-13T06:45:29;18.50;;;14.00;;
18905;SDS011;9585;51.018;4.282;2023-02-13T06:48:03;20.50;;;15.50;;
18905;SDS011;9585;51.018;4.282;2023-02-13T06:50:30;22.10;;;15.87;;
18905;SDS011;9585;51.018;4.282;2023-02-13T06:52:58;21.47;;;15.77;;
18905;SDS011;9585;51.018;4.282;2023-02-13T06:55:27;18.70;;;14.20;;
18905;SDS011;9585;51.018;4.282;2023-02-13T06:57:54;19.77;;;14.27;;
18905;SDS011;9585;51.018;4.282;2023-02-13T07:00:22;21.13;;;15.90;;
18905;SDS011;9585;51.018;4.282;2023-02-13T07:02:49;20.60;;;14.80;;
18905;SDS011;9585;51.018;4.282;2023-02-13T07:05:16;20.47;;;14.93;;
18905;SDS011;9585;51.018;4.282;2023-02-13T07:07:43;23.07;;;14.77;;
18905;SDS011;9585;51.018;4.282;2023-02-13T07:10:11;21.80;;;15.17;;
18905;SDS011;9585;51.018;4.282;2023-02-13T07:12:40;20.20;;;14.37;;
18905;SDS011;9585;51.018;4.282;2023-02-13T07:15:08;23.03;;;16.50;;
18905;SDS011;9585;51.018;4.282;2023-02-13T07:17:36;22.30;;;16.00;;
18905;SDS011;9585;51.018;4.282;2023-02-13T07:20:03;23.60;;;17.80;;
18905;SDS011;9585;51.018;4.282;2023-02-13T07:22:32;22.60;;;16.30;;
18905;SDS011;9585;51.018;4.282;2023-02-13T07:24:59;28.00;;;21.03;;
18905;SDS011;9585;51.018;4.282;2023-02-13T07:27:27;29.60;;;21.13;;
18905;SDS011;9585;51.018;4.282;2023-02-13T07:29:56;29.67;;;21.23;;
18905;SDS011;9585;51.018;4.282;2023-02-13T07:32:23;21.73;;;16.23;;
18905;SDS011;9585;51.018;4.282;2023-02-13T07:34:51;23.03;;;17.03;;
18905;SDS011;9585;51.018;4.282;2023-02-13T07:37:18;23.00;;;16.73;;
18905;SDS011;9585;51.018;4.282;2023-02-13T07:39:46;24.13;;;16.47;;
18905;SDS011;9585;51.018;4.282;2023-02-13T07:42:13;21.40;;;15.83;;
18905;SDS011;9585;51.018;4.282;2023-02-13T07:44:40;23.73;;;16.57;;
18905;SDS011;9585;51.018;4.282;2023-02-13T07:47:09;21.40;;;15.87;;
18905;SDS011;9585;51.018;4.282;2023-02-13T07:49:36;21.87;;;16.23;;
18905;SDS011;9585;51.018;4.282;2023-02-13T07:52:04;21.83;;;16.90;;
18905;SDS011;9585;51.018;4.282;2023-02-13T07:54:32;19.60;;;14.67;;
18905;SDS011;9585;51.018;4.282;2023-02-13T07:56:59;21.70;;;16.60;;
18905;SDS011;9585;51.018;4.282;2023-02-13T07:59:26;20.60;;;15.50;;
18905;SDS011;9585;51.018;4.282;2023-02-13T08:01:53;20.97;;;15.30;;
18905;SDS011;9585;51.018;4.282;2023-02-13T08:04:22;20.67;;;15.63;;
18905;SDS011;9585;51.018;4.282;2023-02-13T08:06:49;20.63;;;15.70;;
18905;SDS011;9585;51.018;4.282;2023-02-13T08:09:18;18.50;;;15.10;;
18905;SDS011;9585;51.018;4.282;2023-02-13T08:12:04;22.57;;;16.27;;
18905;SDS011;9585;51.018;4.282;2023-02-13T08:14:33;19.60;;;14.90;;
18905;SDS011;9585;51.018;4.282;2023-02-13T08:17:00;15.93;;;13.40;;
18905;SDS011;9585;51.018;4.282;2023-02-13T08:19:29;16.30;;;12.93;;
18905;SDS011;9585;51.018;4.282;2023-02-13T08:21:56;13.33;;;11.53;;
18905;SDS011;9585;51.018;4.282;2023-02-13T08:24:24;16.10;;;12.20;;
18905;SDS011;9585;51.018;4.282;2023-02-13T08:26:52;16.43;;;13.13;;
18905;SDS011;9585;51.018;4.282;2023-02-13T08:29:19;15.20;;;12.43;;
18905;SDS011;9585;51.018;4.282;2023-02-13T08:31:46;15.03;;;12.30;;
18905;SDS011;9585;51.018;4.282;2023-02-13T08:34:13;17.47;;;13.90;;
18905;SDS011;9585;51.018;4.282;2023-02-13T08:36:42;16.63;;;13.30;;
18905;SDS011;9585;51.018;4.282;2023-02-13T08:39:09;16.30;;;14.50;;
18905;SDS011;9585;51.018;4.282;2023-02-13T08:41:37;16.80;;;14.30;;
18905;SDS011;9585;51.018;4.282;2023-02-13T08:44:04;18.27;;;14.93;;
18905;SDS011;9585;51.018;4.282;2023-02-13T08:46:31;18.43;;;14.73;;
18905;SDS011;9585;51.018;4.282;2023-02-13T08:48:58;22.03;;;16.90;;
18905;SDS011;9585;51.018;4.282;2023-02-13T08:51:26;21.03;;;16.17;;
18905;SDS011;9585;51.018;4.282;2023-02-13T08:53:54;22.40;;;16.77;;
18905;SDS011;9585;51.018;4.282;2023-02-13T08:56:22;22.07;;;17.47;;
18905;SDS011;9585;51.018;4.282;2023-02-13T08:58:49;25.63;;;18.30;;
18905;SDS011;9585;51.018;4.282;2023-02-13T09:01:17;23.20;;;17.43;;
18905;SDS011;9585;51.018;4.282;2023-02-13T09:03:44;25.67;;;16.95;;
18905;SDS011;9585;51.018;4.282;2023-02-13T09:06:11;22.43;;;17.23;;
18905;SDS011;9585;51.018;4.282;2023-02-13T09:08:38;23.13;;;16.93;;
18905;SDS011;9585;51.018;4.282;2023-02-13T09:11:08;24.10;;;17.13;;
18905;SDS011;9585;51.018;4.282;2023-02-13T09:13:35;24.73;;;17.58;;
18905;SDS011;9585;51.018;4.282;2023-02-13T09:16:04;27.20;;;18.60;;
18905;SDS011;9585;51.018;4.282;2023-02-13T09:18:32;24.77;;;19.05;;
18905;SDS011;9585;51.018;4.282;2023-02-13T09:21:01;25.02;;;18.70;;
18905;SDS011;9585;51.018;4.282;2023-02-13T09:23:30;26.13;;;19.40;;
18905;SDS011;9585;51.018;4.282;2023-02-13T09:25:58;26.00;;;19.98;;
18905;SDS011;9585;51.018;4.282;2023-02-13T09:28:27;26.83;;;20.63;;
18905;SDS011;9585;51.018;4.282;2023-02-13T09:30:55;28.17;;;19.40;;
18905;SDS011;9585;51.018;4.282;2023-02-13T09:33:23;24.95;;;17.60;;
18905;SDS011;9585;51.018;4.282;2023-02-13T09:35:50;24.25;;;17.90;;
18905;SDS011;9585;51.018;4.282;2023-02-13T09:38:18;25.00;;;18.17;;
18905;SDS011;9585;51.018;4.282;2023-02-13T09:40:46;26.48;;;18.58;;
18905;SDS011;9585;51.018;4.282;2023-02-13T09:43:20;25.13;;;18.45;;
18905;SDS011;9585;51.018;4.282;2023-02-13T09:45:55;24.80;;;17.73;;
18905;SDS011;9585;51.018;4.282;2023-02-13T09:48:27;24.65;;;17.73;;
18905;SDS011;9585;51.018;4.282;2023-02-13T09:50:57;27.88;;;19.38;;
18905;SDS011;9585;51.018;4.282;2023-02-13T09:53:26;27.63;;;19.10;;
18905;SDS011;9585;51.018;4.282;2023-02-13T09:56:01;25.65;;;18.77;;
18905;SDS011;9585;51.018;4.282;2023-02-13T09:58:38;25.27;;;17.75;;
18905;SDS011;9585;51.018;4.282;2023-02-13T10:01:18;25.58;;;18.40;;
18905;SDS011;9585;51.018;4.282;2023-02-13T10:04:04;22.27;;;16.45;;
18905;SDS011;9585;51.018;4.282;2023-02-13T10:06:49;25.83;;;17.52;;
18905;SDS011;9585;51.018;4.282;2023-02-13T10:09:26;26.55;;;18.55;;
18905;SDS011;9585;51.018;4.282;2023-02-13T10:12:11;25.83;;;17.10;;
18905;SDS011;9585;51.018;4.282;2023-02-13T10:14:48;25.70;;;18.08;;
18905;SDS011;9585;51.018;4.282;2023-02-13T10:17:27;24.38;;;17.38;;
18905;SDS011;9585;51.018;4.282;2023-02-13T10:19:58;24.33;;;16.75;;
18905;SDS011;9585;51.018;4.282;2023-02-13T10:22:28;23.33;;;16.10;;
18905;SDS011;9585;51.018;4.282;2023-02-13T10:25:00;23.75;;;16.17;;
18905;SDS011;9585;51.018;4.282;2023-02-13T10:27:31;22.35;;;15.90;;
18905;SDS011;9585;51.018;4.282;2023-02-13T10:30:01;26.67;;;17.48;;
18905;SDS011;9585;51.018;4.282;2023-02-13T10:32:48;26.20;;;16.65;;
18905;SDS011;9585;51.018;4.282;2023-02-13T10:35:35;22.08;;;15.70;;
18905;SDS011;9585;51.018;4.282;2023-02-13T10:38:10;22.40;;;16.15;;
18905;SDS011;9585;51.018;4.282;2023-02-13T10:40:42;23.58;;;16.02;;
18905;SDS011;9585;51.018;4.282;2023-02-13T10:43:27;21.67;;;15.82;;
18905;SDS011;9585;51.018;4.282;2023-02-13T10:46:03;21.70;;;15.10;;
18905;SDS011;9585;51.018;4.282;2023-02-13T10:48:57;18.48;;;13.27;;
18905;SDS011;9585;51.018;4.282;2023-02-13T10:51:32;20.58;;;14.88;;
18905;SDS011;9585;51.018;4.282;2023-02-13T10:54:12;19.77;;;15.05;;
18905;SDS011;9585;51.018;4.282;2023-02-13T10:56:47;19.92;;;14.80;;
18905;SDS011;9585;51.018;4.282;2023-02-13T10:59:27;20.75;;;15.23;;
18905;SDS011;9585;51.018;4.282;2023-02-13T11:02:09;18.77;;;14.27;;
18905;SDS011;9585;51.018;4.282;2023-02-13T11:04:48;18.20;;;13.73;;
18905;SDS011;9585;51.018;4.282;2023-02-13T11:07:18;18.73;;;13.07;;
18905;SDS011;9585;51.018;4.282;2023-02-13T11:09:48;19.63;;;13.45;;
18905;SDS011;9585;51.018;4.282;2023-02-13T11:12:24;19.98;;;13.88;;
18905;SDS011;9585;51.018;4.282;2023-02-13T11:14:53;18.77;;;13.68;;
18905;SDS011;9585;51.018;4.282;2023-02-13T11:17:22;21.40;;;15.35;;
18905;SDS011;9585;51.018;4.282;2023-02-13T11:19:52;19.00;;;14.65;;
18905;SDS011;9585;51.018;4.282;2023-02-13T11:22:25;23.00;;;15.02;;
18905;SDS011;9585;51.018;4.282;2023-02-13T11:24:57;19.40;;;14.32;;
18905;SDS011;9585;51.018;4.282;2023-02-13T11:27:27;23.27;;;15.45;;
18905;SDS011;9585;51.018;4.282;2023-02-13T11:29:59;21.10;;;15.18;;
18905;SDS011;9585;51.018;4.282;2023-02-13T11:32:30;19.48;;;14.52;;
18905;SDS011;9585;51.018;4.282;2023-02-13T11:35:15;20.92;;;14.30;;
18905;SDS011;9585;51.018;4.282;2023-02-13T11:40:39;23.50;;;14.98;;
18905;SDS011;9585;51.018;4.282;2023-02-13T11:43:13;21.48;;;14.27;;
18905;SDS011;9585;51.018;4.282;2023-02-13T11:45:44;19.38;;;13.63;;
18905;SDS011;9585;51.018;4.282;2023-02-13T11:48:19;20.05;;;15.10;;
18905;SDS011;9585;51.018;4.282;2023-02-13T11:50:52;22.20;;;15.68;;
18905;SDS011;9585;51.018;4.282;2023-02-13T11:53:21;22.48;;;15.52;;
18905;SDS011;9585;51.018;4.282;2023-02-13T11:56:08;22.38;;;15.43;;
18905;SDS011;9585;51.018;4.282;2023-02-13T11:58:37;22.60;;;16.10;;
18905;SDS011;9585;51.018;4.282;2023-02-13T12:01:22;22.23;;;15.05;;
18905;SDS011;9585;51.018;4.282;2023-02-13T12:03:56;22.55;;;15.65;;
18905;SDS011;9585;51.018;4.282;2023-02-13T12:06:30;22.60;;;16.70;;
18905;SDS011;9585;51.018;4.282;2023-02-13T12:09:04;20.30;;;15.05;;
18905;SDS011;9585;51.018;4.282;2023-02-13T12:11:38;22.17;;;15.40;;
18905;SDS011;9585;51.018;4.282;2023-02-13T12:14:09;21.50;;;14.77;;
18905;SDS011;9585;51.018;4.282;2023-02-13T12:16:40;22.65;;;16.73;;
18905;SDS011;9585;51.018;4.282;2023-02-13T12:19:12;20.83;;;15.55;;
18905;SDS011;9585;51.018;4.282;2023-02-13T12:21:51;21.40;;;14.98;;
18905;SDS011;9585;51.018;4.282;2023-02-13T12:24:34;20.80;;;14.95;;
18905;SDS011;9585;51.018;4.282;2023-02-13T12:27:24;21.05;;;14.48;;
18905;SDS011;9585;51.018;4.282;2023-02-13T12:30:23;22.40;;;15.00;;
18905;SDS011;9585;51.018;4.282;2023-02-13T12:33:03;19.50;;;14.63;;
18905;SDS011;9585;51.018;4.282;2023-02-13T12:35:42;23.75;;;14.70;;
18905;SDS011;9585;51.018;4.282;2023-02-13T12:38:20;21.52;;;14.85;;
18905;SDS011;9585;51.018;4.282;2023-02-13T12:41:10;19.45;;;14.25;;
18905;SDS011;9585;51.018;4.282;2023-02-13T12:43:47;18.67;;;13.65;;
18905;SDS011;9585;51.018;4.282;2023-02-13T12:46:28;17.58;;;13.55;;
18905;SDS011;9585;51.018;4.282;2023-02-13T12:49:02;22.63;;;14.30;;
18905;SDS011;9585;51.018;4.282;2023-02-13T12:51:45;18.77;;;13.63;;
18905;SDS011;9585;51.018;4.282;2023-02-13T12:54:25;19.02;;;13.57;;
18905;SDS011;9585;51.018;4.282;2023-02-13T12:57:05;18.40;;;13.13;;
18905;SDS011;9585;51.018;4.282;2023-02-13T12:59:53;18.13;;;13.10;;
18905;SDS011;9585;51.018;4.282;2023-02-13T13:02:42;17.83;;;12.63;;
18905;SDS011;9585;51.018;4.282;2023-02-13T13:05:28;16.35;;;12.48;;
18905;SDS011;9585;51.018;4.282;2023-02-13T13:08:11;17.30;;;12.50;;
18905;SDS011;9585;51.018;4.282;2023-02-13T13:10:53;16.92;;;12.13;;
18905;SDS011;9585;51.018;4.282;2023-02-13T13:13:34;15.77;;;12.40;;
18905;SDS011;9585;51.018;4.282;2023-02-13T13:16:12;16.25;;;11.75;;
18905;SDS011;9585;51.018;4.282;2023-02-13T13:18:48;16.27;;;11.43;;
18905;SDS011;9585;51.018;4.282;2023-02-13T13:21:25;19.92;;;13.50;;
18905;SDS011;9585;51.018;4.282;2023-02-13T13:24:04;14.80;;;11.38;;
18905;SDS011;9585;51.018;4.282;2023-02-13T13:26:39;14.45;;;10.90;;
18905;SDS011;9585;51.018;4.282;2023-02-13T13:29:10;14.35;;;10.88;;
18905;SDS011;9585;51.018;4.282;2023-02-13T13:31:45;13.45;;;10.88;;
18905;SDS011;9585;51.018;4.282;2023-02-13T13:34:20;13.68;;;9.88;;
18905;SDS011;9585;51.018;4.282;2023-02-13T13:36:51;12.50;;;10.20;;
18905;SDS011;9585;51.018;4.282;2023-02-13T13:39:32;12.75;;;10.40;;
18905;SDS011;9585;51.018;4.282;2023-02-13T13:42:11;12.30;;;9.70;;
18905;SDS011;9585;51.018;4.282;2023-02-13T13:44:49;11.45;;;9.00;;
18905;SDS011;9585;51.018;4.282;2023-02-13T13:47:41;13.32;;;9.63;;
18905;SDS011;9585;51.018;4.282;2023-02-13T13:50:17;11.68;;;9.07;;
18905;SDS011;9585;51.018;4.282;2023-02-13T13:58:32;12.05;;;8.73;;
18905;SDS011;9585;51.018;4.282;2023-02-13T14:01:14;11.05;;;8.85;;
18905;SDS011;9585;51.018;4.282;2023-02-13T14:03:47;13.73;;;9.45;;
18905;SDS011;9585;51.018;4.282;2023-02-13T14:06:16;11.32;;;8.90;;
18905;SDS011;9585;51.018;4.282;2023-02-13T14:11:53;12.38;;;9.07;;
18905;SDS011;9585;51.018;4.282;2023-02-13T14:20:22;9.65;;;8.07;;
18905;SDS011;9585;51.018;4.282;2023-02-13T14:26:30;10.13;;;8.07;;
18905;SDS011;9585;51.018;4.282;2023-02-13T14:31:56;11.63;;;8.93;;
18905;SDS011;9585;51.018;4.282;2023-02-13T14:34:41;11.82;;;8.95;;
18905;SDS011;9585;51.018;4.282;2023-02-13T14:37:17;11.50;;;8.38;;
18905;SDS011;9585;51.018;4.282;2023-02-13T14:42:59;10.20;;;8.13;;
18905;SDS011;9585;51.018;4.282;2023-02-13T14:45:35;11.93;;;8.60;;
18905;SDS011;9585;51.018;4.282;2023-02-13T14:48:14;11.00;;;8.55;;
18905;SDS011;9585;51.018;4.282;2023-02-13T14:50:45;9.65;;;8.02;;
18905;SDS011;9585;51.018;4.282;2023-02-13T14:53:17;10.73;;;8.38;;
18905;SDS011;9585;51.018;4.282;2023-02-13T14:55:49;12.38;;;8.85;;
18905;SDS011;9585;51.018;4.282;2023-02-13T14:58:24;11.52;;;8.90;;
18905;SDS011;9585;51.018;4.282;2023-02-13T15:00:58;9.80;;;8.45;;
18905;SDS011;9585;51.018;4.282;2023-02-13T15:03:33;10.40;;;8.15;;
18905;SDS011;9585;51.018;4.282;2023-02-13T15:06:10;12.02;;;8.90;;
18905;SDS011;9585;51.018;4.282;2023-02-13T15:08:41;11.30;;;9.00;;
18905;SDS011;9585;51.018;4.282;2023-02-13T15:14:16;11.23;;;8.73;;
18905;SDS011;9585;51.018;4.282;2023-02-13T15:17:04;12.23;;;8.75;;
18905;SDS011;9585;51.018;4.282;2023-02-13T15:19:36;10.02;;;8.35;;
18905;SDS011;9585;51.018;4.282;2023-02-13T15:22:05;11.35;;;8.00;;
18905;SDS011;9585;51.018;4.282;2023-02-13T15:24:37;9.45;;;7.78;;
18905;SDS011;9585;51.018;4.282;2023-02-13T15:27:13;10.85;;;8.30;;
18905;SDS011;9585;51.018;4.282;2023-02-13T15:29:54;10.48;;;7.22;;
18905;SDS011;9585;51.018;4.282;2023-02-13T15:32:33;10.90;;;8.48;;
18905;SDS011;9585;51.018;4.282;2023-02-13T15:35:09;10.40;;;8.35;;
18905;SDS011;9585;51.018;4.282;2023-02-13T15:37:48;10.10;;;7.72;;
18905;SDS011;9585;51.018;4.282;2023-02-13T15:40:16;10.60;;;8.60;;
18905;SDS011;9585;51.018;4.282;2023-02-13T15:42:49;10.60;;;8.43;;
18905;SDS011;9585;51.018;4.282;2023-02-13T15:45:18;10.40;;;8.00;;
18905;SDS011;9585;51.018;4.282;2023-02-13T15:47:47;11.40;;;9.00;;